sensor_id;sensor_type;location;lat;lon;timestamp;P1;durP1;ratioP1;P2;durP2;ratioP2
17169;SDS011;8700;48.222;16.342;2023-09-08T00:00:21;12.80;;;11.50;;
17169;SDS011;8700;48.222;16.342;2023-09-08T00:03:45;13.65;;;12.25;;
17169;SDS011;8700;48.222;16.342;2023-09-08T00:07:12;13.25;;;12.05;;
17169;SDS011;8700;48.222;16.342;2023-09-08T00:10:38;14.85;;;13.40;;
17169;SDS011;8700;48.222;16.342;2023-09-08T00:14:02;11.48;;;10.38;;
17169;SDS011;8700;48.222;16.342;2023-09-08T00:17:27;11.93;;;11.02;;
17169;SDS011;8700;48.222;16.342;2023-09-08T00:20:51;12.82;;;11.70;;
17169;SDS011;8700;48.222;16.342;2023-09-08T00:24:14;15.27;;;12.20;;
17169;SDS011;8700;48.222;16.342;2023-09-08T00:27:36;14.10;;;12.88;;
17169;SDS011;8700;48.222;16.342;2023-09-08T00:30:59;13.48;;;12.38;;
17169;SDS011;8700;48.222;16.342;2023-09-08T00:34:23;14.18;;;13.05;;
17169;SDS011;8700;48.222;16.342;2023-09-08T00:37:46;13.82;;;11.32;;
17169;SDS011;8700;48.222;16.342;2023-09-08T00:41:09;13.43;;;12.10;;
17169;SDS011;8700;48.222;16.342;2023-09-08T00:44:31;14.05;;;11.45;;
17169;SDS011;8700;48.222;16.342;2023-09-08T00:47:54;13.68;;;12.07;;
17169;SDS011;8700;48.222;16.342;2023-09-08T00:51:18;12.40;;;11.38;;
17169;SDS011;8700;48.222;16.342;2023-09-08T00:54:41;12.98;;;11.77;;
17169;SDS011;8700;48.222;16.342;2023-09-08T00:58:03;13.18;;;11.93;;
17169;SDS011;8700;48.222;16.342;2023-09-08T01:01:26;13.32;;;12.20;;
17169;SDS011;8700;48.222;16.342;2023-09-08T01:04:48;14.55;;;13.27;;
17169;SDS011;8700;48.222;16.342;2023-09-08T01:08:13;13.32;;;12.10;;
17169;SDS011;8700;48.222;16.342;2023-09-08T01:11:36;13.80;;;11.35;;
17169;SDS011;8700;48.222;16.342;2023-09-08T01:14:59;12.65;;;11.48;;
17169;SDS011;8700;48.222;16.342;2023-09-08T01:18:21;12.82;;;11.52;;
17169;SDS011;8700;48.222;16.342;2023-09-08T01:25:38;13.27;;;12.07;;
17169;SDS011;8700;48.222;16.342;2023-09-08T01:29:05;13.65;;;12.43;;
17169;SDS011;8700;48.222;16.342;2023-09-08T01:32:27;13.20;;;12.10;;
17169;SDS011;8700;48.222;16.342;2023-09-08T01:35:51;12.30;;;11.18;;
17169;SDS011;8700;48.222;16.342;2023-09-08T01:39:13;13.73;;;12.52;;
17169;SDS011;8700;48.222;16.342;2023-09-08T01:42:37;11.98;;;11.00;;
17169;SDS011;8700;48.222;16.342;2023-09-08T01:46:00;13.40;;;12.30;;
17169;SDS011;8700;48.222;16.342;2023-09-08T01:49:23;16.10;;;12.25;;
17169;SDS011;8700;48.222;16.342;2023-09-08T01:52:45;13.45;;;12.25;;
17169;SDS011;8700;48.222;16.342;2023-09-08T01:56:07;14.73;;;13.13;;
17169;SDS011;8700;48.222;16.342;2023-09-08T01:59:31;12.90;;;11.77;;
17169;SDS011;8700;48.222;16.342;2023-09-08T02:02:54;13.43;;;12.13;;
17169;SDS011;8700;48.222;16.342;2023-09-08T02:06:16;13.23;;;11.95;;
17169;SDS011;8700;48.222;16.342;2023-09-08T02:09:38;13.15;;;11.95;;
17169;SDS011;8700;48.222;16.342;2023-09-08T02:13:01;12.32;;;11.23;;
17169;SDS011;8700;48.222;16.342;2023-09-08T02:16:25;13.90;;;12.45;;
17169;SDS011;8700;48.222;16.342;2023-09-08T02:19:48;13.27;;;12.18;;
17169;SDS011;8700;48.222;16.342;2023-09-08T02:23:11;14.57;;;12.52;;
17169;SDS011;8700;48.222;16.342;2023-09-08T02:26:33;13.60;;;12.32;;
17169;SDS011;8700;48.222;16.342;2023-09-08T02:29:56;12.95;;;11.30;;
17169;SDS011;8700;48.222;16.342;2023-09-08T02:33:20;13.05;;;11.82;;
17169;SDS011;8700;48.222;16.342;2023-09-08T02:36:43;12.90;;;11.68;;
17169;SDS011;8700;48.222;16.342;2023-09-08T02:40:07;12.65;;;11.55;;
17169;SDS011;8700;48.222;16.342;2023-09-08T02:43:30;13.35;;;12.10;;
17169;SDS011;8700;48.222;16.342;2023-09-08T02:46:52;13.85;;;12.63;;
17169;SDS011;8700;48.222;16.342;2023-09-08T02:50:16;15.40;;;13.90;;
17169;SDS011;8700;48.222;16.342;2023-09-08T02:53:39;14.50;;;13.10;;
17169;SDS011;8700;48.222;16.342;2023-09-08T02:57:01;12.70;;;11.50;;
17169;SDS011;8700;48.222;16.342;2023-09-08T03:00:24;14.27;;;12.90;;
17169;SDS011;8700;48.222;16.342;2023-09-08T03:03:47;13.43;;;12.13;;
17169;SDS011;8700;48.222;16.342;2023-09-08T03:07:11;14.73;;;11.95;;
17169;SDS011;8700;48.222;16.342;2023-09-08T03:10:35;13.38;;;12.20;;
17169;SDS011;8700;48.222;16.342;2023-09-08T03:13:57;13.90;;;12.52;;
17169;SDS011;8700;48.222;16.342;2023-09-08T03:17:19;13.45;;;12.05;;
17169;SDS011;8700;48.222;16.342;2023-09-08T03:20:41;13.35;;;12.18;;
17169;SDS011;8700;48.222;16.342;2023-09-08T03:24:06;13.45;;;12.15;;
17169;SDS011;8700;48.222;16.342;2023-09-08T03:27:28;13.90;;;12.60;;
17169;SDS011;8700;48.222;16.342;2023-09-08T03:30:51;12.80;;;11.55;;
17169;SDS011;8700;48.222;16.342;2023-09-08T03:34:13;12.30;;;11.20;;
17169;SDS011;8700;48.222;16.342;2023-09-08T03:37:36;12.40;;;11.25;;
17169;SDS011;8700;48.222;16.342;2023-09-08T03:40:59;12.30;;;11.13;;
17169;SDS011;8700;48.222;16.342;2023-09-08T03:44:22;13.38;;;12.35;;
17169;SDS011;8700;48.222;16.342;2023-09-08T03:47:45;13.05;;;11.95;;
17169;SDS011;8700;48.222;16.342;2023-09-08T03:51:07;12.70;;;11.55;;
17169;SDS011;8700;48.222;16.342;2023-09-08T03:54:30;13.38;;;12.07;;
17169;SDS011;8700;48.222;16.342;2023-09-08T03:57:53;13.05;;;11.80;;
17169;SDS011;8700;48.222;16.342;2023-09-08T04:01:16;13.80;;;12.50;;
17169;SDS011;8700;48.222;16.342;2023-09-08T04:04:40;12.73;;;11.63;;
17169;SDS011;8700;48.222;16.342;2023-09-08T04:08:02;14.43;;;13.05;;
17169;SDS011;8700;48.222;16.342;2023-09-08T04:11:26;13.48;;;12.35;;
17169;SDS011;8700;48.222;16.342;2023-09-08T04:14:49;13.48;;;12.27;;
17169;SDS011;8700;48.222;16.342;2023-09-08T04:18:12;14.32;;;12.80;;
17169;SDS011;8700;48.222;16.342;2023-09-08T04:21:34;13.40;;;12.25;;
17169;SDS011;8700;48.222;16.342;2023-09-08T04:24:57;14.60;;;13.35;;
17169;SDS011;8700;48.222;16.342;2023-09-08T04:28:20;14.25;;;12.80;;
17169;SDS011;8700;48.222;16.342;2023-09-08T04:31:44;14.65;;;13.15;;
17169;SDS011;8700;48.222;16.342;2023-09-08T04:35:06;13.52;;;12.50;;
17169;SDS011;8700;48.222;16.342;2023-09-08T04:38:29;13.95;;;12.80;;
17169;SDS011;8700;48.222;16.342;2023-09-08T04:41:51;15.10;;;13.77;;
17169;SDS011;8700;48.222;16.342;2023-09-08T04:45:13;15.52;;;14.10;;
17169;SDS011;8700;48.222;16.342;2023-09-08T04:48:37;17.13;;;15.38;;
17169;SDS011;8700;48.222;16.342;2023-09-08T04:52:00;14.85;;;13.27;;
17169;SDS011;8700;48.222;16.342;2023-09-08T04:55:22;15.55;;;14.13;;
17169;SDS011;8700;48.222;16.342;2023-09-08T04:58:45;14.70;;;13.52;;
17169;SDS011;8700;48.222;16.342;2023-09-08T05:02:07;15.07;;;13.82;;
17169;SDS011;8700;48.222;16.342;2023-09-08T05:05:32;15.30;;;13.88;;
17169;SDS011;8700;48.222;16.342;2023-09-08T05:08:54;15.18;;;13.95;;
17169;SDS011;8700;48.222;16.342;2023-09-08T05:12:17;17.23;;;15.75;;
17169;SDS011;8700;48.222;16.342;2023-09-08T05:15:39;16.10;;;14.45;;
17169;SDS011;8700;48.222;16.342;2023-09-08T05:19:04;16.75;;;15.23;;
17169;SDS011;8700;48.222;16.342;2023-09-08T05:22:28;16.63;;;15.20;;
17169;SDS011;8700;48.222;16.342;2023-09-08T05:25:51;18.33;;;16.50;;
17169;SDS011;8700;48.222;16.342;2023-09-08T05:29:14;17.67;;;16.00;;
17169;SDS011;8700;48.222;16.342;2023-09-08T05:32:37;17.60;;;15.90;;
17169;SDS011;8700;48.222;16.342;2023-09-08T05:35:59;17.75;;;16.00;;
17169;SDS011;8700;48.222;16.342;2023-09-08T05:39:24;16.50;;;15.02;;
17169;SDS011;8700;48.222;16.342;2023-09-08T05:42:45;17.00;;;15.50;;
17169;SDS011;8700;48.222;16.342;2023-09-08T05:46:08;18.50;;;16.90;;
17169;SDS011;8700;48.222;16.342;2023-09-08T05:49:30;23.02;;;20.92;;
17169;SDS011;8700;48.222;16.342;2023-09-08T05:52:53;18.50;;;16.75;;
17169;SDS011;8700;48.222;16.342;2023-09-08T05:56:18;18.30;;;16.50;;
17169;SDS011;8700;48.222;16.342;2023-09-08T05:59:41;18.58;;;16.83;;
17169;SDS011;8700;48.222;16.342;2023-09-08T06:03:04;19.48;;;17.45;;
17169;SDS011;8700;48.222;16.342;2023-09-08T06:06:27;17.42;;;15.73;;
17169;SDS011;8700;48.222;16.342;2023-09-08T06:09:50;17.27;;;15.63;;
17169;SDS011;8700;48.222;16.342;2023-09-08T06:13:15;18.83;;;16.88;;
17169;SDS011;8700;48.222;16.342;2023-09-08T06:16:37;18.67;;;16.85;;
17169;SDS011;8700;48.222;16.342;2023-09-08T06:20:00;18.60;;;16.90;;
17169;SDS011;8700;48.222;16.342;2023-09-08T06:23:22;18.25;;;16.35;;
17169;SDS011;8700;48.222;16.342;2023-09-08T06:26:46;19.15;;;17.23;;
17169;SDS011;8700;48.222;16.342;2023-09-08T06:30:11;18.30;;;16.60;;
17169;SDS011;8700;48.222;16.342;2023-09-08T06:33:36;19.02;;;17.30;;
17169;SDS011;8700;48.222;16.342;2023-09-08T06:36:58;18.92;;;17.13;;
17169;SDS011;8700;48.222;16.342;2023-09-08T06:40:21;18.17;;;16.27;;
17169;SDS011;8700;48.222;16.342;2023-09-08T06:43:43;19.77;;;17.98;;
17169;SDS011;8700;48.222;16.342;2023-09-08T06:47:08;17.60;;;15.95;;
17169;SDS011;8700;48.222;16.342;2023-09-08T06:50:30;18.73;;;16.65;;
17169;SDS011;8700;48.222;16.342;2023-09-08T06:53:54;16.65;;;15.18;;
17169;SDS011;8700;48.222;16.342;2023-09-08T06:57:17;17.52;;;15.77;;
17169;SDS011;8700;48.222;16.342;2023-09-08T07:00:41;16.02;;;14.52;;
17169;SDS011;8700;48.222;16.342;2023-09-08T07:04:05;16.95;;;15.35;;
17169;SDS011;8700;48.222;16.342;2023-09-08T07:07:28;16.92;;;15.13;;
17169;SDS011;8700;48.222;16.342;2023-09-08T07:10:52;18.00;;;16.40;;
17169;SDS011;8700;48.222;16.342;2023-09-08T07:14:15;16.65;;;14.93;;
17169;SDS011;8700;48.222;16.342;2023-09-08T07:17:37;18.02;;;16.08;;
17169;SDS011;8700;48.222;16.342;2023-09-08T07:21:02;17.42;;;15.93;;
17169;SDS011;8700;48.222;16.342;2023-09-08T07:24:24;16.65;;;15.25;;
17169;SDS011;8700;48.222;16.342;2023-09-08T07:27:47;19.95;;;15.68;;
17169;SDS011;8700;48.222;16.342;2023-09-08T07:31:12;18.13;;;16.52;;
17169;SDS011;8700;48.222;16.342;2023-09-08T07:34:36;17.65;;;15.82;;
17169;SDS011;8700;48.222;16.342;2023-09-08T07:38:01;22.92;;;20.55;;
17169;SDS011;8700;48.222;16.342;2023-09-08T07:41:23;18.65;;;16.95;;
17169;SDS011;8700;48.222;16.342;2023-09-08T07:44:47;18.23;;;15.60;;
17169;SDS011;8700;48.222;16.342;2023-09-08T07:48:09;18.38;;;16.77;;
17169;SDS011;8700;48.222;16.342;2023-09-08T07:51:32;16.80;;;15.10;;
17169;SDS011;8700;48.222;16.342;2023-09-08T07:54:57;17.80;;;16.20;;
17169;SDS011;8700;48.222;16.342;2023-09-08T07:58:19;17.38;;;15.82;;
17169;SDS011;8700;48.222;16.342;2023-09-08T08:01:45;17.25;;;15.82;;
17169;SDS011;8700;48.222;16.342;2023-09-08T08:05:23;17.83;;;16.23;;
17169;SDS011;8700;48.222;16.342;2023-09-08T08:08:46;18.67;;;16.83;;
17169;SDS011;8700;48.222;16.342;2023-09-08T08:12:11;19.85;;;17.83;;
17169;SDS011;8700;48.222;16.342;2023-09-08T08:15:35;19.00;;;17.23;;
17169;SDS011;8700;48.222;16.342;2023-09-08T08:18:57;16.42;;;15.02;;
17169;SDS011;8700;48.222;16.342;2023-09-08T08:22:20;16.13;;;14.48;;
17169;SDS011;8700;48.222;16.342;2023-09-08T08:25:42;15.82;;;14.32;;
17169;SDS011;8700;48.222;16.342;2023-09-08T08:29:07;14.60;;;13.27;;
17169;SDS011;8700;48.222;16.342;2023-09-08T08:32:29;18.02;;;16.38;;
17169;SDS011;8700;48.222;16.342;2023-09-08T08:35:53;14.68;;;13.02;;
17169;SDS011;8700;48.222;16.342;2023-09-08T08:39:16;12.32;;;11.23;;
17169;SDS011;8700;48.222;16.342;2023-09-08T08:42:40;13.25;;;11.90;;
17169;SDS011;8700;48.222;16.342;2023-09-08T08:46:06;11.73;;;10.57;;
17169;SDS011;8700;48.222;16.342;2023-09-08T08:49:32;12.18;;;10.95;;
17169;SDS011;8700;48.222;16.342;2023-09-08T08:52:56;10.68;;;9.88;;
17169;SDS011;8700;48.222;16.342;2023-09-08T08:56:19;9.90;;;9.10;;
17169;SDS011;8700;48.222;16.342;2023-09-08T08:59:41;10.13;;;9.18;;
17169;SDS011;8700;48.222;16.342;2023-09-08T09:03:06;8.25;;;7.65;;
17169;SDS011;8700;48.222;16.342;2023-09-08T09:06:30;9.20;;;8.40;;
17169;SDS011;8700;48.222;16.342;2023-09-08T09:09:53;8.82;;;8.10;;
17169;SDS011;8700;48.222;16.342;2023-09-08T09:13:16;8.65;;;7.95;;
17169;SDS011;8700;48.222;16.342;2023-09-08T09:16:40;7.32;;;6.70;;
17169;SDS011;8700;48.222;16.342;2023-09-08T09:20:14;8.38;;;7.55;;
17169;SDS011;8700;48.222;16.342;2023-09-08T09:23:38;6.93;;;6.32;;
17169;SDS011;8700;48.222;16.342;2023-09-08T09:27:00;9.02;;;8.25;;
17169;SDS011;8700;48.222;16.342;2023-09-08T09:30:24;7.47;;;6.97;;
17169;SDS011;8700;48.222;16.342;2023-09-08T09:33:48;7.47;;;6.78;;
17169;SDS011;8700;48.222;16.342;2023-09-08T09:37:24;7.50;;;6.90;;
17169;SDS011;8700;48.222;16.342;2023-09-08T09:40:47;8.07;;;7.18;;
17169;SDS011;8700;48.222;16.342;2023-09-08T09:44:09;10.52;;;6.25;;
17169;SDS011;8700;48.222;16.342;2023-09-08T09:47:32;7.07;;;6.50;;
17169;SDS011;8700;48.222;16.342;2023-09-08T09:50:55;6.93;;;6.32;;
17169;SDS011;8700;48.222;16.342;2023-09-08T09:54:19;7.07;;;6.40;;
17169;SDS011;8700;48.222;16.342;2023-09-08T09:57:43;6.75;;;6.25;;
17169;SDS011;8700;48.222;16.342;2023-09-08T10:01:05;7.15;;;6.20;;
17169;SDS011;8700;48.222;16.342;2023-09-08T10:04:29;6.32;;;5.72;;
17169;SDS011;8700;48.222;16.342;2023-09-08T10:07:52;6.10;;;5.70;;
17169;SDS011;8700;48.222;16.342;2023-09-08T10:11:18;6.82;;;6.22;;
17169;SDS011;8700;48.222;16.342;2023-09-08T10:14:44;6.80;;;6.20;;
17169;SDS011;8700;48.222;16.342;2023-09-08T10:18:10;7.00;;;6.40;;
17169;SDS011;8700;48.222;16.342;2023-09-08T10:21:36;7.20;;;6.55;;
17169;SDS011;8700;48.222;16.342;2023-09-08T10:25:03;7.05;;;6.55;;
17169;SDS011;8700;48.222;16.342;2023-09-08T10:28:29;6.78;;;6.20;;
17169;SDS011;8700;48.222;16.342;2023-09-08T10:31:53;6.72;;;6.15;;
17169;SDS011;8700;48.222;16.342;2023-09-08T10:35:15;6.93;;;6.32;;
17169;SDS011;8700;48.222;16.342;2023-09-08T10:38:39;6.97;;;6.32;;
17169;SDS011;8700;48.222;16.342;2023-09-08T10:42:22;5.90;;;5.40;;
17169;SDS011;8700;48.222;16.342;2023-09-08T10:45:50;6.43;;;5.82;;
17169;SDS011;8700;48.222;16.342;2023-09-08T10:49:14;7.00;;;6.18;;
17169;SDS011;8700;48.222;16.342;2023-09-08T10:52:37;7.22;;;6.53;;
17169;SDS011;8700;48.222;16.342;2023-09-08T10:55:59;6.55;;;6.00;;
17169;SDS011;8700;48.222;16.342;2023-09-08T10:59:27;6.70;;;6.20;;
17169;SDS011;8700;48.222;16.342;2023-09-08T11:02:52;6.60;;;6.07;;
17169;SDS011;8700;48.222;16.342;2023-09-08T11:06:17;6.32;;;5.82;;
17169;SDS011;8700;48.222;16.342;2023-09-08T11:09:42;6.40;;;5.93;;
17169;SDS011;8700;48.222;16.342;2023-09-08T11:13:04;5.90;;;5.40;;
17169;SDS011;8700;48.222;16.342;2023-09-08T11:16:27;5.32;;;5.03;;
17169;SDS011;8700;48.222;16.342;2023-09-08T11:19:54;7.35;;;6.68;;
17169;SDS011;8700;48.222;16.342;2023-09-08T11:23:17;7.32;;;6.82;;
17169;SDS011;8700;48.222;16.342;2023-09-08T11:26:39;6.88;;;6.38;;
17169;SDS011;8700;48.222;16.342;2023-09-08T11:30:05;6.45;;;6.05;;
17169;SDS011;8700;48.222;16.342;2023-09-08T11:33:32;7.47;;;6.65;;
17169;SDS011;8700;48.222;16.342;2023-09-08T11:37:00;6.75;;;6.13;;
17169;SDS011;8700;48.222;16.342;2023-09-08T11:40:29;6.28;;;5.78;;
17169;SDS011;8700;48.222;16.342;2023-09-08T11:43:54;6.32;;;5.82;;
17169;SDS011;8700;48.222;16.342;2023-09-08T11:47:17;5.85;;;5.45;;
17169;SDS011;8700;48.222;16.342;2023-09-08T11:50:40;6.28;;;5.88;;
17169;SDS011;8700;48.222;16.342;2023-09-08T11:54:04;6.68;;;6.18;;
17169;SDS011;8700;48.222;16.342;2023-09-08T11:57:27;6.65;;;5.90;;
17169;SDS011;8700;48.222;16.342;2023-09-08T12:00:50;7.60;;;6.75;;
17169;SDS011;8700;48.222;16.342;2023-09-08T12:04:22;6.70;;;6.10;;
17169;SDS011;8700;48.222;16.342;2023-09-08T12:07:46;7.47;;;6.93;;
17169;SDS011;8700;48.222;16.342;2023-09-08T12:11:10;7.97;;;7.10;;
17169;SDS011;8700;48.222;16.342;2023-09-08T12:14:39;7.65;;;7.05;;
17169;SDS011;8700;48.222;16.342;2023-09-08T12:18:03;7.15;;;6.55;;
17169;SDS011;8700;48.222;16.342;2023-09-08T12:21:27;7.50;;;6.82;;
17169;SDS011;8700;48.222;16.342;2023-09-08T12:24:57;6.18;;;5.78;;
17169;SDS011;8700;48.222;16.342;2023-09-08T12:28:24;7.35;;;6.68;;
17169;SDS011;8700;48.222;16.342;2023-09-08T12:31:53;7.35;;;6.70;;
17169;SDS011;8700;48.222;16.342;2023-09-08T12:35:19;7.70;;;7.00;;
17169;SDS011;8700;48.222;16.342;2023-09-08T12:38:46;7.25;;;6.50;;
17169;SDS011;8700;48.222;16.342;2023-09-08T12:42:09;7.97;;;6.47;;
17169;SDS011;8700;48.222;16.342;2023-09-08T12:45:33;8.32;;;6.88;;
17169;SDS011;8700;48.222;16.342;2023-09-08T12:48:56;7.30;;;6.60;;
17169;SDS011;8700;48.222;16.342;2023-09-08T12:52:18;8.10;;;6.10;;
17169;SDS011;8700;48.222;16.342;2023-09-08T12:55:41;7.57;;;6.95;;
17169;SDS011;8700;48.222;16.342;2023-09-08T12:59:03;10.93;;;6.90;;
17169;SDS011;8700;48.222;16.342;2023-09-08T13:02:28;11.48;;;7.53;;
17169;SDS011;8700;48.222;16.342;2023-09-08T13:05:52;7.00;;;6.47;;
17169;SDS011;8700;48.222;16.342;2023-09-08T13:09:15;6.63;;;6.13;;
17169;SDS011;8700;48.222;16.342;2023-09-08T13:12:38;7.32;;;6.53;;
17169;SDS011;8700;48.222;16.342;2023-09-08T13:16:01;6.97;;;5.43;;
17169;SDS011;8700;48.222;16.342;2023-09-08T13:19:25;6.35;;;5.85;;
17169;SDS011;8700;48.222;16.342;2023-09-08T13:22:49;7.97;;;6.55;;
17169;SDS011;8700;48.222;16.342;2023-09-08T13:26:15;7.75;;;7.05;;
17169;SDS011;8700;48.222;16.342;2023-09-08T13:29:42;7.45;;;6.38;;
17169;SDS011;8700;48.222;16.342;2023-09-08T13:33:13;6.90;;;6.40;;
17169;SDS011;8700;48.222;16.342;2023-09-08T13:36:43;6.57;;;5.97;;
17169;SDS011;8700;48.222;16.342;2023-09-08T13:40:06;6.35;;;5.85;;
17169;SDS011;8700;48.222;16.342;2023-09-08T13:43:30;6.63;;;6.13;;
17169;SDS011;8700;48.222;16.342;2023-09-08T13:46:53;7.18;;;6.68;;
17169;SDS011;8700;48.222;16.342;2023-09-08T13:50:18;6.43;;;5.80;;
17169;SDS011;8700;48.222;16.342;2023-09-08T13:53:42;6.55;;;5.95;;
17169;SDS011;8700;48.222;16.342;2023-09-08T13:57:07;6.63;;;6.13;;
17169;SDS011;8700;48.222;16.342;2023-09-08T14:00:32;6.95;;;6.45;;
17169;SDS011;8700;48.222;16.342;2023-09-08T14:03:56;6.15;;;5.65;;
17169;SDS011;8700;48.222;16.342;2023-09-08T14:07:20;6.75;;;5.85;;
17169;SDS011;8700;48.222;16.342;2023-09-08T14:10:48;6.90;;;6.32;;
17169;SDS011;8700;48.222;16.342;2023-09-08T14:14:14;7.65;;;6.95;;
17169;SDS011;8700;48.222;16.342;2023-09-08T14:17:39;6.72;;;5.75;;
17169;SDS011;8700;48.222;16.342;2023-09-08T14:21:05;7.72;;;6.43;;
17169;SDS011;8700;48.222;16.342;2023-09-08T14:24:28;6.38;;;5.95;;
17169;SDS011;8700;48.222;16.342;2023-09-08T14:27:53;7.72;;;6.95;;
17169;SDS011;8700;48.222;16.342;2023-09-08T14:31:16;7.35;;;6.20;;
17169;SDS011;8700;48.222;16.342;2023-09-08T14:34:38;6.43;;;5.75;;
17169;SDS011;8700;48.222;16.342;2023-09-08T14:38:01;6.22;;;5.63;;
17169;SDS011;8700;48.222;16.342;2023-09-08T14:41:23;6.97;;;6.43;;
17169;SDS011;8700;48.222;16.342;2023-09-08T14:44:48;6.50;;;6.03;;
17169;SDS011;8700;48.222;16.342;2023-09-08T14:48:11;5.75;;;5.35;;
17169;SDS011;8700;48.222;16.342;2023-09-08T14:51:34;6.90;;;6.30;;
17169;SDS011;8700;48.222;16.342;2023-09-08T14:54:59;6.70;;;6.00;;
17169;SDS011;8700;48.222;16.342;2023-09-08T14:58:21;7.55;;;6.85;;
17169;SDS011;8700;48.222;16.342;2023-09-08T15:01:46;7.57;;;6.55;;
17169;SDS011;8700;48.222;16.342;2023-09-08T15:05:11;7.07;;;6.53;;
17169;SDS011;8700;48.222;16.342;2023-09-08T15:08:33;6.82;;;6.38;;
17169;SDS011;8700;48.222;16.342;2023-09-08T15:11:57;6.57;;;6.00;;
17169;SDS011;8700;48.222;16.342;2023-09-08T15:15:21;7.13;;;6.55;;
17169;SDS011;8700;48.222;16.342;2023-09-08T15:18:48;8.85;;;5.90;;
17169;SDS011;8700;48.222;16.342;2023-09-08T15:22:13;6.30;;;5.80;;
17169;SDS011;8700;48.222;16.342;2023-09-08T15:25:39;7.85;;;7.05;;
17169;SDS011;8700;48.222;16.342;2023-09-08T15:29:02;6.57;;;5.97;;
17169;SDS011;8700;48.222;16.342;2023-09-08T15:32:28;8.13;;;7.35;;
17169;SDS011;8700;48.222;16.342;2023-09-08T15:35:52;6.78;;;6.25;;
17169;SDS011;8700;48.222;16.342;2023-09-08T15:39:16;7.95;;;6.50;;
17169;SDS011;8700;48.222;16.342;2023-09-08T15:42:40;7.22;;;6.63;;
17169;SDS011;8700;48.222;16.342;2023-09-08T15:46:04;7.68;;;6.70;;
17169;SDS011;8700;48.222;16.342;2023-09-08T15:49:29;7.65;;;6.95;;
17169;SDS011;8700;48.222;16.342;2023-09-08T15:52:54;7.35;;;6.47;;
17169;SDS011;8700;48.222;16.342;2023-09-08T15:56:17;7.20;;;6.28;;
17169;SDS011;8700;48.222;16.342;2023-09-08T15:59:40;7.03;;;6.32;;
17169;SDS011;8700;48.222;16.342;2023-09-08T16:03:03;7.80;;;7.10;;
17169;SDS011;8700;48.222;16.342;2023-09-08T16:06:27;7.18;;;6.53;;
17169;SDS011;8700;48.222;16.342;2023-09-08T16:09:51;8.88;;;7.68;;
17169;SDS011;8700;48.222;16.342;2023-09-08T16:13:13;7.38;;;6.78;;
17169;SDS011;8700;48.222;16.342;2023-09-08T16:16:36;7.65;;;6.88;;
17169;SDS011;8700;48.222;16.342;2023-09-08T16:20:01;7.93;;;7.15;;
17169;SDS011;8700;48.222;16.342;2023-09-08T16:23:24;7.50;;;6.80;;
17169;SDS011;8700;48.222;16.342;2023-09-08T16:26:48;8.50;;;7.80;;
17169;SDS011;8700;48.222;16.342;2023-09-08T16:30:12;7.38;;;6.82;;
17169;SDS011;8700;48.222;16.342;2023-09-08T16:33:35;7.15;;;6.53;;
17169;SDS011;8700;48.222;16.342;2023-09-08T16:36:58;7.60;;;6.97;;
17169;SDS011;8700;48.222;16.342;2023-09-08T16:40:22;8.25;;;7.55;;
17169;SDS011;8700;48.222;16.342;2023-09-08T16:43:47;7.68;;;6.97;;
17169;SDS011;8700;48.222;16.342;2023-09-08T16:47:11;12.85;;;8.63;;
17169;SDS011;8700;48.222;16.342;2023-09-08T16:50:33;8.93;;;7.72;;
17169;SDS011;8700;48.222;16.342;2023-09-08T16:53:56;6.97;;;6.47;;
17169;SDS011;8700;48.222;16.342;2023-09-08T16:57:19;7.75;;;7.07;;
17169;SDS011;8700;48.222;16.342;2023-09-08T17:00:43;7.07;;;6.38;;
17169;SDS011;8700;48.222;16.342;2023-09-08T17:04:06;7.65;;;7.15;;
17169;SDS011;8700;48.222;16.342;2023-09-08T17:07:30;7.63;;;6.72;;
17169;SDS011;8700;48.222;16.342;2023-09-08T17:10:53;8.20;;;7.50;;
17169;SDS011;8700;48.222;16.342;2023-09-08T17:14:17;8.63;;;7.55;;
17169;SDS011;8700;48.222;16.342;2023-09-08T17:17:43;8.50;;;7.70;;
17169;SDS011;8700;48.222;16.342;2023-09-08T17:21:06;8.23;;;7.32;;
17169;SDS011;8700;48.222;16.342;2023-09-08T17:24:28;8.57;;;7.88;;
17169;SDS011;8700;48.222;16.342;2023-09-08T17:27:51;9.75;;;8.90;;
17169;SDS011;8700;48.222;16.342;2023-09-08T17:31:14;9.45;;;7.68;;
17169;SDS011;8700;48.222;16.342;2023-09-08T17:34:39;8.95;;;8.10;;
17169;SDS011;8700;48.222;16.342;2023-09-08T17:38:01;7.93;;;7.28;;
17169;SDS011;8700;48.222;16.342;2023-09-08T17:41:25;7.88;;;7.22;;
17169;SDS011;8700;48.222;16.342;2023-09-08T17:44:48;7.78;;;6.93;;
17169;SDS011;8700;48.222;16.342;2023-09-08T17:48:11;8.57;;;7.78;;
17169;SDS011;8700;48.222;16.342;2023-09-08T17:51:35;8.05;;;7.25;;
17169;SDS011;8700;48.222;16.342;2023-09-08T17:54:58;8.80;;;8.18;;
17169;SDS011;8700;48.222;16.342;2023-09-08T17:58:23;10.77;;;6.95;;
17169;SDS011;8700;48.222;16.342;2023-09-08T18:01:47;8.25;;;7.45;;
17169;SDS011;8700;48.222;16.342;2023-09-08T18:05:09;8.63;;;7.60;;
17169;SDS011;8700;48.222;16.342;2023-09-08T18:08:33;7.30;;;6.65;;
17169;SDS011;8700;48.222;16.342;2023-09-08T18:11:55;8.18;;;7.38;;
17169;SDS011;8700;48.222;16.342;2023-09-08T18:15:18;8.25;;;7.55;;
17169;SDS011;8700;48.222;16.342;2023-09-08T18:18:40;8.10;;;7.35;;
17169;SDS011;8700;48.222;16.342;2023-09-08T18:22:05;9.20;;;8.30;;
17169;SDS011;8700;48.222;16.342;2023-09-08T18:25:29;8.70;;;7.95;;
17169;SDS011;8700;48.222;16.342;2023-09-08T18:28:51;12.02;;;8.60;;
17169;SDS011;8700;48.222;16.342;2023-09-08T18:32:14;8.02;;;7.22;;
17169;SDS011;8700;48.222;16.342;2023-09-08T18:35:37;8.48;;;7.78;;
17169;SDS011;8700;48.222;16.342;2023-09-08T18:38:59;10.05;;;9.05;;
17169;SDS011;8700;48.222;16.342;2023-09-08T18:42:26;9.02;;;8.13;;
17169;SDS011;8700;48.222;16.342;2023-09-08T18:45:48;8.63;;;7.95;;
17169;SDS011;8700;48.222;16.342;2023-09-08T18:49:11;10.35;;;9.45;;
17169;SDS011;8700;48.222;16.342;2023-09-08T18:52:33;10.70;;;9.77;;
17169;SDS011;8700;48.222;16.342;2023-09-08T18:55:56;9.75;;;8.82;;
17169;SDS011;8700;48.222;16.342;2023-09-08T18:59:19;10.77;;;9.77;;
17169;SDS011;8700;48.222;16.342;2023-09-08T19:02:42;10.65;;;9.55;;
17169;SDS011;8700;48.222;16.342;2023-09-08T19:06:04;11.43;;;10.10;;
17169;SDS011;8700;48.222;16.342;2023-09-08T19:09:29;15.13;;;11.00;;
17169;SDS011;8700;48.222;16.342;2023-09-08T19:12:52;10.23;;;9.32;;
17169;SDS011;8700;48.222;16.342;2023-09-08T19:16:15;10.40;;;9.38;;
17169;SDS011;8700;48.222;16.342;2023-09-08T19:19:38;10.98;;;9.95;;
17169;SDS011;8700;48.222;16.342;2023-09-08T19:23:01;11.20;;;10.20;;
17169;SDS011;8700;48.222;16.342;2023-09-08T19:26:23;10.77;;;9.98;;
17169;SDS011;8700;48.222;16.342;2023-09-08T19:29:47;11.50;;;10.25;;
17169;SDS011;8700;48.222;16.342;2023-09-08T19:33:11;11.48;;;10.50;;
17169;SDS011;8700;48.222;16.342;2023-09-08T19:36:34;11.65;;;10.65;;
17169;SDS011;8700;48.222;16.342;2023-09-08T19:39:58;12.65;;;11.55;;
17169;SDS011;8700;48.222;16.342;2023-09-08T19:43:21;11.38;;;10.15;;
17169;SDS011;8700;48.222;16.342;2023-09-08T19:46:43;12.70;;;11.63;;
17169;SDS011;8700;48.222;16.342;2023-09-08T19:50:08;12.07;;;11.02;;
17169;SDS011;8700;48.222;16.342;2023-09-08T19:53:30;11.98;;;10.90;;
17169;SDS011;8700;48.222;16.342;2023-09-08T19:56:53;13.27;;;12.18;;
17169;SDS011;8700;48.222;16.342;2023-09-08T20:00:15;13.70;;;12.60;;
17169;SDS011;8700;48.222;16.342;2023-09-08T20:03:40;13.98;;;12.77;;
17169;SDS011;8700;48.222;16.342;2023-09-08T20:07:05;16.63;;;12.70;;
17169;SDS011;8700;48.222;16.342;2023-09-08T20:10:29;14.18;;;12.73;;